Champaign, IL (61825)

10:40 AM CDT on October 31, 2014 (GMT -0500)
Crop Sciences Research & Education Center | Change Station
CLOSE
Current Station
Personal Weather Station
Location: Urbana, IL
Elevation: 730 ft
Nearby Weather Stations
Active Advisory: Freeze Warning

Elev 730 ft 40.09 °N, 88.23 °W | Updated 9 minutes ago

Overcast
Overcast
37.5 °F
Feels Like 31 °F
N
9.3
Wind Variable Wind from NNW
Gusts 19.1 mph

Today
High -- | Low -- °F
--% Chance of Precip.
Yesterday
High -- | Low -- °F
Precip. -- in
7:21 AM 5:51 PM
First Quarter, 56% visible
Pressure 30.14 in
Visibility 10.0 miles
Clouds Mostly Cloudy 2900 ft
Overcast 7000 ft
Windchill 31 °F
Dew Point 17 °F
Humidity 43%
Rainfall -999.00 in
Snow Depth Not available.
UV 1 out of 12
Pollen .30 out of 12
Air Quality Not available.
Flu Activity Not available.
SPECI KCMI 311517Z 33020G27KT 10SM BKN029 OVC070 04/M01 A3014 RMK AO2 PK WND 33032/1454 T00391011 $

More Conditions Fewer Conditions

Pressure 30.14 in
Visibility 10.0 miles
Clouds Mostly Cloudy 2900 ft
Overcast 7000 ft
Windchill 31 °F
Dew Point 17 °F
Humidity 43%
Rainfall -999.00 in
Snow Depth Not available.
UV 1 out of 12
Pollen .30 out of 12
Air Quality Not available.
Flu Activity Not available.
SPECI KCMI 311517Z 33020G27KT 10SM BKN029 OVC070 04/M01 A3014 RMK AO2 PK WND 33032/1454 T00391011 $

More Conditions Fewer Conditions

10-Day Weather Forecast

Almanac

Astronomy

Oct. 31, 2014 Rise Set
Actual Time
Civil Twilight
Nautical Twilight
Astronomical Twilight
Moon
Length of Visible Light
Length of Day
Tomorrow will be .
, % of the Moon is Illuminated

Today's Extremes

State Highs State Lows

Community

WunderPhotos

Upload Photos

1,766,644 photos uploaded!

WunderBlogs® & News

Nearby

Air Quality

  Air Quality AQ Index Pollutant
Not available.

Snow Depth

Station Depth Elevation

Earthquake Activity

City Distance Mag. Time & Date
Minimum magnitude displayed is 2.5.

Coastal Water Temperatures

Place Temperature

Nearby Weather Stations